createdAt,value
2022-09-01T00:00:11.178Z,19.50
2022-09-01T00:02:37.995Z,19.50
2022-09-01T00:05:07.856Z,19.50
2022-09-01T00:07:35.626Z,19.50
2022-09-01T00:10:06.054Z,19.40
2022-09-01T00:12:33.214Z,19.40
2022-09-01T00:15:00.047Z,19.40
2022-09-01T00:17:27.262Z,19.40
2022-09-01T00:19:54.097Z,19.40
2022-09-01T00:22:21.186Z,19.40
2022-09-01T00:24:48.762Z,19.30
2022-09-01T00:27:15.537Z,19.40
2022-09-01T00:29:43.989Z,19.30
2022-09-01T00:32:11.573Z,19.30
2022-09-01T00:34:38.550Z,19.30
2022-09-01T00:37:05.493Z,19.30
2022-09-01T00:39:32.558Z,19.30
2022-09-01T00:41:59.584Z,19.30
2022-09-01T00:44:31.115Z,19.30
2022-09-01T00:47:00.064Z,19.20
2022-09-01T00:49:47.634Z,19.20
2022-09-01T00:52:29.355Z,19.10
2022-09-01T00:55:01.548Z,19.10
2022-09-01T00:57:28.464Z,19.10
2022-09-01T00:59:59.517Z,19.10
2022-09-01T01:02:27.069Z,19.00
2022-09-01T01:04:55.957Z,19.00
2022-09-01T01:07:23.277Z,18.90
2022-09-01T01:09:51.237Z,18.90
2022-09-01T01:12:18.412Z,18.90
2022-09-01T01:14:50.108Z,18.80
2022-09-01T01:17:19.226Z,18.70
2022-09-01T01:20:11.365Z,18.70
2022-09-01T01:23:05.355Z,18.60
2022-09-01T01:25:44.236Z,18.50
2022-09-01T01:28:23.529Z,18.50
2022-09-01T01:30:55.430Z,18.40
2022-09-01T01:33:25.555Z,18.40
2022-09-01T01:35:55.263Z,18.30
2022-09-01T01:38:22.982Z,18.30
2022-09-01T01:40:51.756Z,18.20
2022-09-01T01:43:21.912Z,18.20
2022-09-01T01:45:54.715Z,18.20
2022-09-01T01:48:25.985Z,18.10
2022-09-01T01:50:54.641Z,18.10
2022-09-01T01:53:23.121Z,18.00
2022-09-01T01:55:50.861Z,18.00
2022-09-01T01:58:22.301Z,17.90
2022-09-01T02:00:52.829Z,17.90
2022-09-01T02:03:22.137Z,17.90
2022-09-01T02:05:53.928Z,17.80
2022-09-01T02:08:26.261Z,17.80
2022-09-01T02:10:55.354Z,17.70
2022-09-01T02:13:30.849Z,17.70
2022-09-01T02:16:01.760Z,17.70
2022-09-01T02:18:35.977Z,17.60
2022-09-01T02:21:11.220Z,17.60
2022-09-01T02:23:41.295Z,17.50
2022-09-01T02:26:18.500Z,17.50
2022-09-01T02:28:54.646Z,17.50
2022-09-01T02:31:27.768Z,17.40
2022-09-01T02:33:54.960Z,17.40
2022-09-01T02:36:22.793Z,17.40
2022-09-01T02:38:53.620Z,17.30
2022-09-01T02:41:25.067Z,17.30
2022-09-01T02:43:52.085Z,17.30
2022-09-01T02:46:24.389Z,17.20
2022-09-01T02:48:53.349Z,17.10
2022-09-01T02:51:23.755Z,17.20
2022-09-01T02:53:52.516Z,17.10
2022-09-01T02:56:25.605Z,17.10
2022-09-01T02:58:54.218Z,17.00
2022-09-01T03:01:29.315Z,17.00
2022-09-01T03:04:01.833Z,16.90
2022-09-01T03:06:29.414Z,16.90
2022-09-01T03:09:01.306Z,16.80
2022-09-01T03:11:30.640Z,16.80
2022-09-01T03:13:58.563Z,16.80
2022-09-01T03:16:25.432Z,16.70
2022-09-01T03:18:53.152Z,16.70
2022-09-01T03:21:21.232Z,16.60
2022-09-01T03:23:49.000Z,16.60
2022-09-01T03:26:18.803Z,16.60
2022-09-01T03:28:46.865Z,16.60
2022-09-01T03:31:13.960Z,16.50
2022-09-01T03:33:42.272Z,16.50
2022-09-01T03:36:19.325Z,16.50
2022-09-01T03:38:49.537Z,16.40
2022-09-01T03:41:21.551Z,16.40
2022-09-01T03:43:49.581Z,16.40
2022-09-01T03:46:21.709Z,16.40
2022-09-01T03:48:52.085Z,16.40
2022-09-01T03:51:22.933Z,16.40
2022-09-01T03:53:54.754Z,16.30
2022-09-01T03:56:25.598Z,16.30
2022-09-01T03:58:53.529Z,16.30
2022-09-01T04:01:21.931Z,16.20
2022-09-01T04:03:50.831Z,16.20
2022-09-01T04:06:21.356Z,16.20
2022-09-01T04:08:48.217Z,16.10
2022-09-01T04:11:24.018Z,16.10
2022-09-01T04:13:52.538Z,16.10
2022-09-01T04:16:44.960Z,16.10
2022-09-01T04:19:20.490Z,16.10
2022-09-01T04:21:53.743Z,16.00
2022-09-01T04:24:24.295Z,16.00
2022-09-01T04:26:52.937Z,16.00
2022-09-01T04:29:27.543Z,15.90
2022-09-01T04:32:02.186Z,15.90
2022-09-01T04:34:41.781Z,15.80
2022-09-01T04:37:18.095Z,15.80
2022-09-01T04:39:56.124Z,15.80
2022-09-01T04:42:27.107Z,15.80
2022-09-01T04:44:54.733Z,15.70
2022-09-01T04:47:31.668Z,15.70
2022-09-01T04:50:12.973Z,15.70
2022-09-01T04:52:42.065Z,15.60
2022-09-01T04:55:18.360Z,15.60
2022-09-01T04:57:49.133Z,15.60
2022-09-01T05:00:23.674Z,15.60
2022-09-01T05:02:53.250Z,15.50
2022-09-01T05:05:22.605Z,15.50
2022-09-01T05:07:54.545Z,15.50
2022-09-01T05:10:23.461Z,15.50
2022-09-01T05:13:17.539Z,15.50
2022-09-01T05:15:46.605Z,15.40
2022-09-01T05:18:23.462Z,15.40
2022-09-01T05:20:52.237Z,15.40
2022-09-01T05:23:20.550Z,15.40
2022-09-01T05:25:49.829Z,15.40
2022-09-01T05:28:19.174Z,15.40
2022-09-01T05:30:48.285Z,15.40
2022-09-01T05:33:21.797Z,15.40
2022-09-01T05:35:55.890Z,15.40
2022-09-01T05:38:25.729Z,15.40
2022-09-01T05:40:58.269Z,15.40
2022-09-01T05:43:27.844Z,15.40
2022-09-01T05:46:05.981Z,15.40
2022-09-01T05:48:35.048Z,15.40
2022-09-01T05:51:22.435Z,15.40
2022-09-01T05:53:59.212Z,15.40
2022-09-01T05:56:29.823Z,15.40
2022-09-01T06:01:50.493Z,15.40
2022-09-01T06:04:18.761Z,15.40
2022-09-01T06:07:05.440Z,15.40
2022-09-01T06:09:38.799Z,15.40
2022-09-01T06:12:06.955Z,15.40
2022-09-01T06:14:34.545Z,15.40
2022-09-01T06:17:03.032Z,15.40
2022-09-01T06:19:33.583Z,15.40
2022-09-01T06:22:03.711Z,15.40
2022-09-01T06:24:31.977Z,15.40
2022-09-01T06:26:59.603Z,15.40
2022-09-01T06:29:26.465Z,15.40
2022-09-01T06:31:53.158Z,15.50
2022-09-01T06:34:20.673Z,15.50
2022-09-01T06:36:49.419Z,15.50
2022-09-01T06:39:20.351Z,15.50
2022-09-01T06:41:53.068Z,15.50
2022-09-01T06:44:25.005Z,15.60
2022-09-01T06:47:00.463Z,15.60
2022-09-01T06:49:33.305Z,15.60
2022-09-01T06:52:02.832Z,15.70
2022-09-01T06:54:34.379Z,15.70
2022-09-01T06:58:03.366Z,15.80
2022-09-01T06:59:52.635Z,15.90
2022-09-01T07:14:26.837Z,16.20
2022-09-01T07:17:22.915Z,16.30
2022-09-01T07:19:56.136Z,16.40
2022-09-01T07:25:13.810Z,16.60
2022-09-01T07:28:18.989Z,16.80
2022-09-01T07:30:48.889Z,16.90
2022-09-01T07:42:55.814Z,15.90
2022-09-01T07:45:25.417Z,17.60
2022-09-01T07:47:55.832Z,17.70
2022-09-01T07:50:39.782Z,17.90
2022-09-01T07:53:09.005Z,18.00
2022-09-01T07:55:36.365Z,18.10
2022-09-01T07:58:03.533Z,18.20
2022-09-01T08:00:31.713Z,18.30
2022-09-01T08:03:06.738Z,18.50
2022-09-01T08:05:34.353Z,18.60
2022-09-01T08:08:01.618Z,18.70
2022-09-01T08:10:32.396Z,18.80
2022-09-01T08:12:59.392Z,19.00
2022-09-01T08:16:06.971Z,19.10
2022-09-01T08:18:14.776Z,19.30
2022-09-01T08:20:45.588Z,19.40
2022-09-01T08:23:32.277Z,19.60
2022-09-01T08:25:59.077Z,19.70
2022-09-01T08:28:27.320Z,19.90
2022-09-01T08:30:56.352Z,20.10
2022-09-01T08:33:26.354Z,20.20
2022-09-01T08:35:54.174Z,20.40
2022-09-01T08:38:22.347Z,20.80
2022-09-01T08:40:57.219Z,21.40
2022-09-01T08:43:39.717Z,22.30
2022-09-01T08:46:30.483Z,23.60
2022-09-01T08:49:25.833Z,25.20
2022-09-01T08:52:34.858Z,26.60
2022-09-01T08:55:34.461Z,28.50
2022-09-01T08:58:02.213Z,30.10
2022-09-01T09:00:57.892Z,31.40
2022-09-01T09:03:56.831Z,32.80
2022-09-01T09:06:25.789Z,33.90
2022-09-01T09:09:03.796Z,35.10
2022-09-01T09:12:04.498Z,36.10
2022-09-01T09:15:00.842Z,37.10
2022-09-01T09:17:34.588Z,37.90
2022-09-01T09:20:03.645Z,38.70
2022-09-01T09:22:31.697Z,39.40
2022-09-01T09:25:10.104Z,39.90
2022-09-01T09:27:42.881Z,40.50
2022-09-01T09:30:19.064Z,41.00
2022-09-01T09:35:54.969Z,41.90
2022-09-01T09:38:33.629Z,42.40
2022-09-01T09:41:20.603Z,42.70
2022-09-01T09:43:58.696Z,43.00
2022-09-01T09:46:31.863Z,43.30
2022-09-01T09:49:15.881Z,43.70
2022-09-01T09:51:48.405Z,43.90
2022-09-01T09:54:26.243Z,44.10
2022-09-01T09:57:17.446Z,44.40
2022-09-01T10:00:00.807Z,44.70
2022-09-01T10:02:42.439Z,44.80
2022-09-01T10:05:33.710Z,45.10
2022-09-01T10:08:00.450Z,45.30
2022-09-01T10:10:44.255Z,45.50
2022-09-01T10:13:18.032Z,45.70
2022-09-01T10:15:51.672Z,45.80
2022-09-01T10:18:29.868Z,45.90
2022-09-01T10:21:01.725Z,45.90
2022-09-01T10:23:30.934Z,45.60
2022-09-01T10:26:09.538Z,45.20
2022-09-01T10:28:49.969Z,44.90
2022-09-01T10:31:18.937Z,44.50
2022-09-01T10:33:46.182Z,44.20
2022-09-01T10:36:15.218Z,44.10
2022-09-01T10:38:50.557Z,44.10
2022-09-01T10:41:43.313Z,44.10
2022-09-01T10:44:19.326Z,44.00
2022-09-01T10:46:50.878Z,43.90
2022-09-01T10:49:30.226Z,43.50
2022-09-01T10:52:03.278Z,42.90
2022-09-01T10:54:40.368Z,42.40
2022-09-01T10:57:41.869Z,42.00
2022-09-01T11:00:35.827Z,41.50
2022-09-01T11:06:12.030Z,40.30
2022-09-01T11:08:58.251Z,39.90
2022-09-01T11:11:46.186Z,39.60
2022-09-01T11:15:11.045Z,39.20
2022-09-01T11:17:56.029Z,38.90
2022-09-01T11:20:34.425Z,38.90
2022-09-01T11:23:14.905Z,39.10
2022-09-01T11:25:45.107Z,39.50
2022-09-01T11:28:15.238Z,39.90
2022-09-01T11:31:03.792Z,40.10
2022-09-01T11:33:49.289Z,40.30
2022-09-01T11:36:26.359Z,40.70
2022-09-01T11:39:05.367Z,41.00
2022-09-01T11:41:45.107Z,41.40
2022-09-01T11:44:54.078Z,41.70
2022-09-01T11:47:26.663Z,42.10
2022-09-01T11:49:58.075Z,42.30
2022-09-01T11:52:30.112Z,42.60
2022-09-01T11:54:58.684Z,42.90
2022-09-01T11:57:40.318Z,43.10
2022-09-01T12:00:11.191Z,43.30
2022-09-01T12:02:46.179Z,43.50
2022-09-01T12:05:27.477Z,43.60
2022-09-01T12:07:54.701Z,43.80
2022-09-01T12:10:32.612Z,43.70
2022-09-01T12:13:10.850Z,43.60
2022-09-01T12:16:00.417Z,43.20
2022-09-01T12:18:32.037Z,42.80
2022-09-01T12:21:02.007Z,42.10
2022-09-01T12:23:40.487Z,41.40
2022-09-01T12:26:33.419Z,40.80
2022-09-01T12:29:01.241Z,40.30
2022-09-01T12:31:28.118Z,40.10
2022-09-01T12:33:56.519Z,39.90
2022-09-01T12:36:35.239Z,39.60
2022-09-01T12:39:23.606Z,39.20
2022-09-01T12:42:19.692Z,38.80
2022-09-01T12:45:13.283Z,38.50
2022-09-01T12:47:48.006Z,38.10
2022-09-01T12:50:16.439Z,37.70
2022-09-01T12:53:00.304Z,37.30
2022-09-01T12:55:50.792Z,36.90
2022-09-01T12:58:27.933Z,36.80
2022-09-01T13:00:54.911Z,36.60
2022-09-01T13:03:23.525Z,36.50
2022-09-01T13:05:53.456Z,36.30
2022-09-01T13:08:35.063Z,36.00
2022-09-01T13:11:05.691Z,35.80
2022-09-01T13:13:35.228Z,35.60
2022-09-01T13:16:13.021Z,35.60
2022-09-01T13:21:30.414Z,35.80
2022-09-01T13:23:57.579Z,36.00
2022-09-01T13:26:24.432Z,36.20
2022-09-01T13:28:51.507Z,36.40
2022-09-01T13:31:34.516Z,36.60
2022-09-01T13:34:11.104Z,36.80
2022-09-01T13:36:52.457Z,37.10
2022-09-01T13:39:21.051Z,37.30
2022-09-01T13:41:49.404Z,37.50
2022-09-01T13:44:18.307Z,37.60
2022-09-01T13:47:28.738Z,37.80
2022-09-01T13:52:21.635Z,38.00
2022-09-01T13:54:48.393Z,38.10
2022-09-01T13:57:16.636Z,38.10
2022-09-01T13:59:44.557Z,38.10
2022-09-01T14:02:11.584Z,38.20
2022-09-01T14:04:38.651Z,38.30
2022-09-01T14:07:06.021Z,38.40
2022-09-01T14:09:34.665Z,38.40
2022-09-01T14:12:01.708Z,38.50
2022-09-01T14:15:10.548Z,38.50
2022-09-01T14:17:15.965Z,38.40
2022-09-01T14:19:42.699Z,38.20
2022-09-01T14:22:09.574Z,37.90
2022-09-01T14:24:38.915Z,37.50
2022-09-01T14:27:07.740Z,37.20
2022-09-01T14:29:34.966Z,36.80
2022-09-01T14:32:02.290Z,36.40
2022-09-01T14:34:30.823Z,36.10
2022-09-01T14:36:57.713Z,35.70
2022-09-01T14:39:25.133Z,35.30
2022-09-01T14:41:51.874Z,35.00
2022-09-01T14:44:18.846Z,34.70
2022-09-01T14:46:46.674Z,34.50
2022-09-01T14:49:17.912Z,34.20
2022-09-01T14:54:40.057Z,33.80
2022-09-01T14:59:54.195Z,33.80
2022-09-01T15:02:22.032Z,34.00
2022-09-01T15:04:48.853Z,34.10
2022-09-01T15:07:15.782Z,34.30
2022-09-01T15:09:43.029Z,34.50
2022-09-01T15:12:09.893Z,34.80
2022-09-01T15:14:37.683Z,35.00
2022-09-01T15:17:05.538Z,35.20
2022-09-01T15:19:32.450Z,35.30
2022-09-01T15:21:59.598Z,35.40
2022-09-01T15:24:26.416Z,35.50
2022-09-01T15:26:53.513Z,35.60
2022-09-01T15:29:20.194Z,35.60
2022-09-01T15:31:47.290Z,35.50
2022-09-01T15:34:14.646Z,35.40
2022-09-01T15:36:42.244Z,35.20
2022-09-01T15:39:10.452Z,34.90
2022-09-01T15:41:37.550Z,34.80
2022-09-01T15:44:07.012Z,34.70
2022-09-01T15:46:35.468Z,34.70
2022-09-01T15:49:04.610Z,34.70
2022-09-01T15:51:35.396Z,34.70
2022-09-01T15:54:07.476Z,34.70
2022-09-01T15:56:34.860Z,34.80
2022-09-01T15:59:04.585Z,34.80
2022-09-01T16:01:35.580Z,34.80
2022-09-01T16:04:03.998Z,34.80
2022-09-01T16:06:33.089Z,34.80
2022-09-01T16:08:59.893Z,34.80
2022-09-01T16:11:27.179Z,34.80
2022-09-01T16:13:54.575Z,34.80
2022-09-01T16:16:24.399Z,34.80
2022-09-01T16:19:06.380Z,34.90
2022-09-01T16:21:56.710Z,34.80
2022-09-01T16:24:24.108Z,34.80
2022-09-01T16:26:51.585Z,34.80
2022-09-01T16:29:32.511Z,34.70
2022-09-01T16:31:59.550Z,34.70
2022-09-01T16:34:28.462Z,34.70
2022-09-01T16:37:26.201Z,34.60
2022-09-01T16:40:10.182Z,34.50
2022-09-01T16:42:50.409Z,34.50
2022-09-01T16:45:40.900Z,34.40
2022-09-01T16:48:31.195Z,34.40
2022-09-01T16:51:20.539Z,34.20
2022-09-01T16:54:01.451Z,34.20
2022-09-01T16:56:35.278Z,34.10
2022-09-01T16:59:21.018Z,33.90
2022-09-01T17:02:26.515Z,33.80
2022-09-01T17:05:02.922Z,33.60
2022-09-01T17:07:38.660Z,33.50
2022-09-01T17:10:30.273Z,33.30
2022-09-01T17:12:58.397Z,33.20
2022-09-01T17:15:38.020Z,33.00
2022-09-01T17:18:36.695Z,32.70
2022-09-01T17:21:38.086Z,32.50
2022-09-01T17:24:26.030Z,32.20
2022-09-01T17:26:55.474Z,32.00
2022-09-01T17:29:37.041Z,31.80
2022-09-01T17:32:27.064Z,31.60
2022-09-01T17:35:00.382Z,31.40
2022-09-01T17:38:05.182Z,31.30
2022-09-01T17:40:46.463Z,31.10
2022-09-01T17:43:21.128Z,30.90
2022-09-01T17:45:54.076Z,30.80
2022-09-01T17:48:37.794Z,30.60
2022-09-01T17:51:19.513Z,30.40
2022-09-01T17:54:16.896Z,30.20
2022-09-01T17:57:24.270Z,29.90
2022-09-01T18:00:09.425Z,29.70
2022-09-01T18:03:02.522Z,29.50
2022-09-01T18:05:43.808Z,29.30
2022-09-01T18:08:21.753Z,29.10
2022-09-01T18:11:23.133Z,28.80
2022-09-01T18:13:59.072Z,28.60
2022-09-01T18:16:31.883Z,28.50
2022-09-01T18:19:05.669Z,28.30
2022-09-01T18:21:38.067Z,28.10
2022-09-01T18:24:28.520Z,27.90
2022-09-01T18:26:55.450Z,27.70
2022-09-01T18:29:25.089Z,27.50
2022-09-01T18:31:58.180Z,27.40
2022-09-01T18:35:08.245Z,27.20
2022-09-01T18:38:07.491Z,27.00
2022-09-01T18:40:51.372Z,26.80
2022-09-01T18:43:33.975Z,26.60
2022-09-01T18:46:03.836Z,26.40
2022-09-01T18:48:57.072Z,26.20
2022-09-01T18:51:31.948Z,26.10
2022-09-01T18:54:14.399Z,25.90
2022-09-01T18:56:52.401Z,25.70
2022-09-01T18:59:53.259Z,25.60
2022-09-01T19:02:36.125Z,25.40
2022-09-01T19:05:26.551Z,25.30
2022-09-01T19:08:07.243Z,25.10
2022-09-01T19:10:57.250Z,25.00
2022-09-01T19:13:49.009Z,24.80
2022-09-01T19:16:31.210Z,24.60
2022-09-01T19:19:05.433Z,24.50
2022-09-01T19:21:32.673Z,24.40
2022-09-01T19:24:07.535Z,24.30
2022-09-01T19:26:58.079Z,24.20
2022-09-01T19:29:36.523Z,24.00
2022-09-01T19:32:09.336Z,23.90
2022-09-01T19:34:41.150Z,23.90
2022-09-01T19:37:08.318Z,23.80
2022-09-01T19:39:42.714Z,23.70
2022-09-01T19:42:31.882Z,23.60
2022-09-01T19:45:07.232Z,23.50
2022-09-01T19:47:57.942Z,23.40
2022-09-01T19:50:51.275Z,23.40
2022-09-01T19:54:01.325Z,23.30
2022-09-01T19:56:41.673Z,23.20
2022-09-01T19:59:52.375Z,23.20
2022-09-01T20:02:49.024Z,23.10
2022-09-01T20:05:27.565Z,23.00
2022-09-01T20:08:01.338Z,22.90
2022-09-01T20:10:58.218Z,22.90
2022-09-01T20:14:02.457Z,22.80
2022-09-01T20:16:42.832Z,22.70
2022-09-01T20:19:18.235Z,22.60
2022-09-01T20:21:47.538Z,22.60
2022-09-01T20:24:35.124Z,22.50
2022-09-01T20:27:22.724Z,22.50
2022-09-01T20:29:58.888Z,22.40
2022-09-01T20:33:01.641Z,22.40
2022-09-01T20:35:56.322Z,22.30
2022-09-01T20:39:14.077Z,22.30
2022-09-01T20:41:57.509Z,22.20
2022-09-01T20:44:51.005Z,22.10
2022-09-01T20:47:18.342Z,22.10
2022-09-01T20:49:45.705Z,22.10
2022-09-01T20:52:28.623Z,22.00
2022-09-01T20:55:05.262Z,22.00
2022-09-01T20:57:40.068Z,21.90
2022-09-01T21:00:22.853Z,21.90
2022-09-01T21:03:32.557Z,21.80
2022-09-01T21:06:22.541Z,21.70
2022-09-01T21:09:04.221Z,21.70
2022-09-01T21:11:48.165Z,21.60
2022-09-01T21:14:21.366Z,21.60
2022-09-01T21:17:15.239Z,21.60
2022-09-01T21:19:53.094Z,21.50
2022-09-01T21:22:22.343Z,21.40
2022-09-01T21:24:49.557Z,21.40
2022-09-01T21:27:23.513Z,21.30
2022-09-01T21:30:02.806Z,21.30
2022-09-01T21:32:32.261Z,21.20
2022-09-01T21:34:59.475Z,21.20
2022-09-01T21:37:27.677Z,21.20
2022-09-01T21:39:56.121Z,21.10
2022-09-01T21:42:28.172Z,21.10
2022-09-01T21:44:56.611Z,21.10
2022-09-01T21:47:24.066Z,21.10
2022-09-01T21:49:50.959Z,21.00
2022-09-01T21:52:18.157Z,21.00
2022-09-01T21:54:44.961Z,21.00
2022-09-01T21:57:11.643Z,21.00
2022-09-01T21:59:38.589Z,21.00
2022-09-01T22:02:06.989Z,21.00
2022-09-01T22:04:38.965Z,21.00
2022-09-01T22:07:06.992Z,21.00
2022-09-01T22:09:33.645Z,21.00
2022-09-01T22:12:00.535Z,21.00
2022-09-01T22:14:27.734Z,21.00
2022-09-01T22:16:55.002Z,21.00
2022-09-01T22:19:21.848Z,21.00
2022-09-01T22:21:49.885Z,21.00
2022-09-01T22:24:19.287Z,21.00
2022-09-01T22:26:48.253Z,21.00
2022-09-01T22:29:15.850Z,21.00
2022-09-01T22:31:42.559Z,21.00
2022-09-01T22:34:09.517Z,21.00
2022-09-01T22:36:40.618Z,21.00
2022-09-01T22:39:08.646Z,21.00
2022-09-01T22:41:36.287Z,21.00
2022-09-01T22:44:04.341Z,21.00
2022-09-01T22:46:32.061Z,21.00
2022-09-01T22:49:00.132Z,21.00
2022-09-01T22:51:27.909Z,21.00
2022-09-01T22:53:55.064Z,21.00
2022-09-01T22:56:25.306Z,21.00
2022-09-01T22:58:56.506Z,21.10
2022-09-01T23:01:26.862Z,21.10
2022-09-01T23:03:58.866Z,21.00
2022-09-01T23:06:28.002Z,21.10
2022-09-01T23:08:57.198Z,21.00
2022-09-01T23:11:25.328Z,21.00
2022-09-01T23:13:52.676Z,21.00
2022-09-01T23:16:20.625Z,21.00
2022-09-01T23:18:49.050Z,21.00
2022-09-01T23:21:18.688Z,20.90
2022-09-01T23:23:45.515Z,20.90
2022-09-01T23:26:14.506Z,20.90
2022-09-01T23:28:43.118Z,20.80
2022-09-01T23:31:13.404Z,20.90
2022-09-01T23:33:40.282Z,20.80
2022-09-01T23:36:10.046Z,20.80
2022-09-01T23:38:38.390Z,20.80
2022-09-01T23:41:11.808Z,20.70
2022-09-01T23:43:39.070Z,20.70
2022-09-01T23:46:07.158Z,20.70
2022-09-01T23:48:34.748Z,20.60
2022-09-01T23:51:08.550Z,20.60
2022-09-01T23:53:36.806Z,20.60
2022-09-01T23:56:08.325Z,20.50
2022-09-01T23:58:35.155Z,20.50
